sensor_id;sensor_type;location;lat;lon;timestamp;temperature;humidity
26254;DHT22;53339;51.378;0.094;2022-08-19T00:01:20;19.40;81.20
26254;DHT22;53339;51.378;0.094;2022-08-19T00:03:56;19.40;81.30
26254;DHT22;53339;51.378;0.094;2022-08-19T00:06:24;19.40;81.40
26254;DHT22;53339;51.378;0.094;2022-08-19T00:08:52;19.40;81.50
26254;DHT22;53339;51.378;0.094;2022-08-19T00:11:20;19.40;81.50
26254;DHT22;53339;51.378;0.094;2022-08-19T00:13:50;19.40;81.50
26254;DHT22;53339;51.378;0.094;2022-08-19T00:16:19;19.40;81.50
26254;DHT22;53339;51.378;0.094;2022-08-19T00:18:47;19.40;81.60
26254;DHT22;53339;51.378;0.094;2022-08-19T00:21:15;19.40;81.60
26254;DHT22;53339;51.378;0.094;2022-08-19T00:23:43;19.50;81.50
26254;DHT22;53339;51.378;0.094;2022-08-19T00:26:11;19.50;81.60
26254;DHT22;53339;51.378;0.094;2022-08-19T00:28:39;19.50;81.60
26254;DHT22;53339;51.378;0.094;2022-08-19T00:31:08;19.50;81.70
26254;DHT22;53339;51.378;0.094;2022-08-19T00:33:36;19.60;81.70
26254;DHT22;53339;51.378;0.094;2022-08-19T00:36:06;19.60;81.70
26254;DHT22;53339;51.378;0.094;2022-08-19T00:38:35;19.60;81.70
26254;DHT22;53339;51.378;0.094;2022-08-19T00:41:06;19.60;81.90
26254;DHT22;53339;51.378;0.094;2022-08-19T00:43:34;19.60;81.90
26254;DHT22;53339;51.378;0.094;2022-08-19T00:46:02;19.60;81.90
26254;DHT22;53339;51.378;0.094;2022-08-19T00:48:33;19.60;81.90
26254;DHT22;53339;51.378;0.094;2022-08-19T00:51:01;19.70;81.90
26254;DHT22;53339;51.378;0.094;2022-08-19T00:53:31;19.70;82.00
26254;DHT22;53339;51.378;0.094;2022-08-19T00:56:01;19.70;82.00
26254;DHT22;53339;51.378;0.094;2022-08-19T00:58:32;19.70;82.00
26254;DHT22;53339;51.378;0.094;2022-08-19T01:01:03;19.70;82.10
26254;DHT22;53339;51.378;0.094;2022-08-19T01:03:31;19.70;82.20
26254;DHT22;53339;51.378;0.094;2022-08-19T01:06:06;19.70;82.20
26254;DHT22;53339;51.378;0.094;2022-08-19T01:08:34;19.70;82.30
26254;DHT22;53339;51.378;0.094;2022-08-19T01:11:02;19.70;82.40
26254;DHT22;53339;51.378;0.094;2022-08-19T01:13:36;19.70;82.50
26254;DHT22;53339;51.378;0.094;2022-08-19T01:16:12;19.70;82.60
26254;DHT22;53339;51.378;0.094;2022-08-19T01:18:40;19.60;82.70
26254;DHT22;53339;51.378;0.094;2022-08-19T01:21:21;19.60;82.90
26254;DHT22;53339;51.378;0.094;2022-08-19T01:23:50;19.60;83.00
26254;DHT22;53339;51.378;0.094;2022-08-19T01:26:21;19.60;83.10
26254;DHT22;53339;51.378;0.094;2022-08-19T01:28:52;19.60;83.20
26254;DHT22;53339;51.378;0.094;2022-08-19T01:31:26;19.60;83.20
26254;DHT22;53339;51.378;0.094;2022-08-19T01:33:56;19.60;83.20
26254;DHT22;53339;51.378;0.094;2022-08-19T01:36:39;19.60;83.20
26254;DHT22;53339;51.378;0.094;2022-08-19T01:39:12;19.60;83.20
26254;DHT22;53339;51.378;0.094;2022-08-19T01:41:39;19.60;83.30
26254;DHT22;53339;51.378;0.094;2022-08-19T01:44:08;19.60;83.30
26254;DHT22;53339;51.378;0.094;2022-08-19T01:46:45;19.60;83.30
26254;DHT22;53339;51.378;0.094;2022-08-19T01:49:17;19.70;83.30
26254;DHT22;53339;51.378;0.094;2022-08-19T01:51:46;19.70;83.20
26254;DHT22;53339;51.378;0.094;2022-08-19T01:54:15;19.70;83.20
26254;DHT22;53339;51.378;0.094;2022-08-19T01:56:51;19.70;83.20
26254;DHT22;53339;51.378;0.094;2022-08-19T01:59:21;19.70;83.20
26254;DHT22;53339;51.378;0.094;2022-08-19T02:01:50;19.80;83.10
26254;DHT22;53339;51.378;0.094;2022-08-19T02:04:17;19.70;83.10
26254;DHT22;53339;51.378;0.094;2022-08-19T02:06:45;19.80;83.10
26254;DHT22;53339;51.378;0.094;2022-08-19T02:09:13;19.70;83.10
26254;DHT22;53339;51.378;0.094;2022-08-19T02:11:41;19.80;83.10
26254;DHT22;53339;51.378;0.094;2022-08-19T02:14:09;19.80;83.10
26254;DHT22;53339;51.378;0.094;2022-08-19T02:16:37;19.80;83.00
26254;DHT22;53339;51.378;0.094;2022-08-19T02:19:05;19.80;83.10
26254;DHT22;53339;51.378;0.094;2022-08-19T02:21:33;19.80;83.10
26254;DHT22;53339;51.378;0.094;2022-08-19T02:24:01;19.80;83.10
26254;DHT22;53339;51.378;0.094;2022-08-19T02:26:29;19.90;83.10
26254;DHT22;53339;51.378;0.094;2022-08-19T02:28:56;19.90;83.10
26254;DHT22;53339;51.378;0.094;2022-08-19T02:31:25;19.90;83.10
26254;DHT22;53339;51.378;0.094;2022-08-19T02:33:55;19.90;83.10
26254;DHT22;53339;51.378;0.094;2022-08-19T02:36:24;20.00;83.00
26254;DHT22;53339;51.378;0.094;2022-08-19T02:38:53;20.00;83.00
26254;DHT22;53339;51.378;0.094;2022-08-19T02:41:28;20.00;83.00
26254;DHT22;53339;51.378;0.094;2022-08-19T02:43:57;20.00;83.00
26254;DHT22;53339;51.378;0.094;2022-08-19T02:46:47;20.00;83.00
26254;DHT22;53339;51.378;0.094;2022-08-19T02:49:15;20.10;83.00
26254;DHT22;53339;51.378;0.094;2022-08-19T02:51:45;20.00;82.90
26254;DHT22;53339;51.378;0.094;2022-08-19T02:54:14;20.10;82.90
26254;DHT22;53339;51.378;0.094;2022-08-19T02:56:43;20.10;82.90
26254;DHT22;53339;51.378;0.094;2022-08-19T02:59:10;20.10;82.90
26254;DHT22;53339;51.378;0.094;2022-08-19T03:01:40;20.10;82.90
26254;DHT22;53339;51.378;0.094;2022-08-19T03:04:13;20.10;82.90
26254;DHT22;53339;51.378;0.094;2022-08-19T03:06:43;20.20;82.90
26254;DHT22;53339;51.378;0.094;2022-08-19T03:09:11;20.20;82.90
26254;DHT22;53339;51.378;0.094;2022-08-19T03:11:40;20.20;82.80
26254;DHT22;53339;51.378;0.094;2022-08-19T03:14:09;20.20;82.80
26254;DHT22;53339;51.378;0.094;2022-08-19T03:16:48;20.20;82.80
26254;DHT22;53339;51.378;0.094;2022-08-19T03:19:18;20.20;82.70
26254;DHT22;53339;51.378;0.094;2022-08-19T03:21:47;20.10;82.80
26254;DHT22;53339;51.378;0.094;2022-08-19T03:24:15;20.10;82.90
26254;DHT22;53339;51.378;0.094;2022-08-19T03:26:47;20.10;82.90
26254;DHT22;53339;51.378;0.094;2022-08-19T03:29:15;20.10;83.00
26254;DHT22;53339;51.378;0.094;2022-08-19T03:31:45;20.00;83.00
26254;DHT22;53339;51.378;0.094;2022-08-19T03:34:23;20.10;83.00
26254;DHT22;53339;51.378;0.094;2022-08-19T03:36:56;20.00;83.10
26254;DHT22;53339;51.378;0.094;2022-08-19T03:39:28;20.00;83.20
26254;DHT22;53339;51.378;0.094;2022-08-19T03:41:56;20.00;83.30
26254;DHT22;53339;51.378;0.094;2022-08-19T03:44:31;20.00;83.30
26254;DHT22;53339;51.378;0.094;2022-08-19T03:47:00;20.00;83.40
26254;DHT22;53339;51.378;0.094;2022-08-19T03:49:30;20.00;83.40
26254;DHT22;53339;51.378;0.094;2022-08-19T03:51:59;20.00;83.50
26254;DHT22;53339;51.378;0.094;2022-08-19T03:54:28;19.90;83.50
26254;DHT22;53339;51.378;0.094;2022-08-19T03:56:57;19.90;83.60
26254;DHT22;53339;51.378;0.094;2022-08-19T03:59:31;19.90;83.70
26254;DHT22;53339;51.378;0.094;2022-08-19T04:02:02;19.70;84.20
26254;DHT22;53339;51.378;0.094;2022-08-19T04:04:30;19.60;84.60
26254;DHT22;53339;51.378;0.094;2022-08-19T04:06:58;19.50;85.00
26254;DHT22;53339;51.378;0.094;2022-08-19T04:09:26;19.40;85.30
26254;DHT22;53339;51.378;0.094;2022-08-19T04:11:58;19.40;85.50
26254;DHT22;53339;51.378;0.094;2022-08-19T04:14:28;19.40;85.60
26254;DHT22;53339;51.378;0.094;2022-08-19T04:16:59;19.40;85.70
26254;DHT22;53339;51.378;0.094;2022-08-19T04:19:30;19.30;85.90
26254;DHT22;53339;51.378;0.094;2022-08-19T04:21:58;19.40;85.90
26254;DHT22;53339;51.378;0.094;2022-08-19T04:24:26;19.40;86.00
26254;DHT22;53339;51.378;0.094;2022-08-19T04:26:55;19.40;86.00
26254;DHT22;53339;51.378;0.094;2022-08-19T04:29:25;19.40;86.00
26254;DHT22;53339;51.378;0.094;2022-08-19T04:31:55;19.40;86.10
26254;DHT22;53339;51.378;0.094;2022-08-19T04:34:26;19.40;86.10
26254;DHT22;53339;51.378;0.094;2022-08-19T04:36:56;19.50;86.20
26254;DHT22;53339;51.378;0.094;2022-08-19T04:39:30;19.50;86.20
26254;DHT22;53339;51.378;0.094;2022-08-19T04:42:17;19.50;86.20
26254;DHT22;53339;51.378;0.094;2022-08-19T04:45:09;19.50;86.30
26254;DHT22;53339;51.378;0.094;2022-08-19T04:47:40;19.50;86.20
26254;DHT22;53339;51.378;0.094;2022-08-19T04:50:14;19.50;86.20
26254;DHT22;53339;51.378;0.094;2022-08-19T04:52:45;19.60;86.20
26254;DHT22;53339;51.378;0.094;2022-08-19T04:55:13;19.50;86.10
26254;DHT22;53339;51.378;0.094;2022-08-19T04:57:41;19.50;86.20
26254;DHT22;53339;51.378;0.094;2022-08-19T05:00:10;19.50;86.30
26254;DHT22;53339;51.378;0.094;2022-08-19T05:02:38;19.50;86.40
26254;DHT22;53339;51.378;0.094;2022-08-19T05:05:06;19.50;86.40
26254;DHT22;53339;51.378;0.094;2022-08-19T05:07:35;19.50;86.50
26254;DHT22;53339;51.378;0.094;2022-08-19T05:10:05;19.50;86.60
26254;DHT22;53339;51.378;0.094;2022-08-19T05:12:33;19.50;86.60
26254;DHT22;53339;51.378;0.094;2022-08-19T05:15:04;19.50;86.60
26254;DHT22;53339;51.378;0.094;2022-08-19T05:17:33;19.50;86.60
26254;DHT22;53339;51.378;0.094;2022-08-19T05:20:06;19.50;86.60
26254;DHT22;53339;51.378;0.094;2022-08-19T05:22:54;19.60;86.60
26254;DHT22;53339;51.378;0.094;2022-08-19T05:25:22;19.60;86.50
26254;DHT22;53339;51.378;0.094;2022-08-19T05:27:52;19.60;86.50
26254;DHT22;53339;51.378;0.094;2022-08-19T05:30:20;19.60;86.40
26254;DHT22;53339;51.378;0.094;2022-08-19T05:32:50;19.60;86.30
26254;DHT22;53339;51.378;0.094;2022-08-19T05:35:19;19.60;86.20
26254;DHT22;53339;51.378;0.094;2022-08-19T05:37:46;19.60;86.40
26254;DHT22;53339;51.378;0.094;2022-08-19T05:40:14;19.50;86.50
26254;DHT22;53339;51.378;0.094;2022-08-19T05:42:42;19.50;86.60
26254;DHT22;53339;51.378;0.094;2022-08-19T05:45:10;19.60;86.70
26254;DHT22;53339;51.378;0.094;2022-08-19T05:47:38;19.60;86.70
26254;DHT22;53339;51.378;0.094;2022-08-19T05:50:08;19.60;86.50
26254;DHT22;53339;51.378;0.094;2022-08-19T05:52:37;19.70;86.40
26254;DHT22;53339;51.378;0.094;2022-08-19T05:55:10;19.70;86.10
26254;DHT22;53339;51.378;0.094;2022-08-19T05:57:38;19.70;86.10
26254;DHT22;53339;51.378;0.094;2022-08-19T06:00:07;19.60;86.20
26254;DHT22;53339;51.378;0.094;2022-08-19T06:02:38;19.60;86.40
26254;DHT22;53339;51.378;0.094;2022-08-19T06:05:07;19.70;86.30
26254;DHT22;53339;51.378;0.094;2022-08-19T06:07:38;19.70;86.40
26254;DHT22;53339;51.378;0.094;2022-08-19T06:10:07;19.80;86.30
26254;DHT22;53339;51.378;0.094;2022-08-19T06:12:36;20.00;85.90
26254;DHT22;53339;51.378;0.094;2022-08-19T06:15:09;20.00;84.80
26254;DHT22;53339;51.378;0.094;2022-08-19T06:17:37;20.10;84.30
26254;DHT22;53339;51.378;0.094;2022-08-19T06:20:07;20.10;83.50
26254;DHT22;53339;51.378;0.094;2022-08-19T06:22:41;20.10;82.90
26254;DHT22;53339;51.378;0.094;2022-08-19T06:25:10;20.10;82.80
26254;DHT22;53339;51.378;0.094;2022-08-19T06:27:39;20.10;82.00
26254;DHT22;53339;51.378;0.094;2022-08-19T06:30:25;20.20;82.10
26254;DHT22;53339;51.378;0.094;2022-08-19T06:32:53;20.20;81.60
26254;DHT22;53339;51.378;0.094;2022-08-19T06:35:21;20.20;81.50
26254;DHT22;53339;51.378;0.094;2022-08-19T06:37:49;20.20;81.10
26254;DHT22;53339;51.378;0.094;2022-08-19T06:40:17;20.30;79.80
26254;DHT22;53339;51.378;0.094;2022-08-19T06:42:45;20.30;78.90
26254;DHT22;53339;51.378;0.094;2022-08-19T06:45:23;20.30;78.60
26254;DHT22;53339;51.378;0.094;2022-08-19T06:48:01;20.30;78.30
26254;DHT22;53339;51.378;0.094;2022-08-19T06:50:29;20.30;78.40
26254;DHT22;53339;51.378;0.094;2022-08-19T06:52:57;20.40;78.20
26254;DHT22;53339;51.378;0.094;2022-08-19T06:55:27;20.40;77.70
26254;DHT22;53339;51.378;0.094;2022-08-19T06:57:56;20.40;77.30
26254;DHT22;53339;51.378;0.094;2022-08-19T07:00:24;20.40;76.90
26254;DHT22;53339;51.378;0.094;2022-08-19T07:02:52;20.40;75.70
26254;DHT22;53339;51.378;0.094;2022-08-19T07:05:25;20.30;75.70
26254;DHT22;53339;51.378;0.094;2022-08-19T07:07:53;20.30;75.10
26254;DHT22;53339;51.378;0.094;2022-08-19T07:10:24;20.20;75.70
26254;DHT22;53339;51.378;0.094;2022-08-19T07:12:52;20.30;75.90
26254;DHT22;53339;51.378;0.094;2022-08-19T07:15:21;20.30;75.60
26254;DHT22;53339;51.378;0.094;2022-08-19T07:17:49;20.30;75.90
26254;DHT22;53339;51.378;0.094;2022-08-19T07:20:20;20.30;75.80
26254;DHT22;53339;51.378;0.094;2022-08-19T07:22:48;20.30;76.20
26254;DHT22;53339;51.378;0.094;2022-08-19T07:25:18;20.40;75.70
26254;DHT22;53339;51.378;0.094;2022-08-19T07:27:49;20.50;75.50
26254;DHT22;53339;51.378;0.094;2022-08-19T07:30:21;20.50;75.80
26254;DHT22;53339;51.378;0.094;2022-08-19T07:32:49;20.50;75.60
26254;DHT22;53339;51.378;0.094;2022-08-19T07:35:19;20.50;75.30
26254;DHT22;53339;51.378;0.094;2022-08-19T07:37:47;20.40;75.60
26254;DHT22;53339;51.378;0.094;2022-08-19T07:40:15;20.40;75.70
26254;DHT22;53339;51.378;0.094;2022-08-19T07:42:43;20.40;75.90
26254;DHT22;53339;51.378;0.094;2022-08-19T07:45:11;20.40;76.20
26254;DHT22;53339;51.378;0.094;2022-08-19T07:47:39;20.40;76.30
26254;DHT22;53339;51.378;0.094;2022-08-19T07:50:14;20.40;76.40
26254;DHT22;53339;51.378;0.094;2022-08-19T07:52:42;20.40;76.60
26254;DHT22;53339;51.378;0.094;2022-08-19T07:55:11;20.50;77.00
26254;DHT22;53339;51.378;0.094;2022-08-19T07:57:59;20.70;77.10
26254;DHT22;53339;51.378;0.094;2022-08-19T08:00:27;20.90;75.60
26254;DHT22;53339;51.378;0.094;2022-08-19T08:02:55;21.00;74.60
26254;DHT22;53339;51.378;0.094;2022-08-19T08:05:23;21.10;74.20
26254;DHT22;53339;51.378;0.094;2022-08-19T08:08:11;21.10;74.00
26254;DHT22;53339;51.378;0.094;2022-08-19T08:10:59;21.20;74.20
26254;DHT22;53339;51.378;0.094;2022-08-19T08:13:27;21.20;74.40
26254;DHT22;53339;51.378;0.094;2022-08-19T08:15:56;21.20;74.20
26254;DHT22;53339;51.378;0.094;2022-08-19T08:18:25;21.20;73.90
26254;DHT22;53339;51.378;0.094;2022-08-19T08:20:55;21.20;74.20
26254;DHT22;53339;51.378;0.094;2022-08-19T08:23:24;21.20;73.90
26254;DHT22;53339;51.378;0.094;2022-08-19T08:25:55;21.30;73.70
26254;DHT22;53339;51.378;0.094;2022-08-19T08:28:25;21.40;73.50
26254;DHT22;53339;51.378;0.094;2022-08-19T08:30:57;21.60;73.60
26254;DHT22;53339;51.378;0.094;2022-08-19T08:33:27;21.80;73.00
26254;DHT22;53339;51.378;0.094;2022-08-19T08:36:08;21.90;71.60
26254;DHT22;53339;51.378;0.094;2022-08-19T08:38:39;21.90;71.70
26254;DHT22;53339;51.378;0.094;2022-08-19T08:43:57;21.90;71.40
26254;DHT22;53339;51.378;0.094;2022-08-19T08:51:49;22.20;69.30
26254;DHT22;53339;51.378;0.094;2022-08-19T08:54:24;22.30;69.20
26254;DHT22;53339;51.378;0.094;2022-08-19T08:56:53;22.30;69.20
26254;DHT22;53339;51.378;0.094;2022-08-19T08:59:28;22.20;69.70
26254;DHT22;53339;51.378;0.094;2022-08-19T09:01:59;22.20;70.10
26254;DHT22;53339;51.378;0.094;2022-08-19T09:04:27;22.20;70.10
26254;DHT22;53339;51.378;0.094;2022-08-19T09:10:13;22.20;70.10
26254;DHT22;53339;51.378;0.094;2022-08-19T09:16:05;22.10;69.00
26254;DHT22;53339;51.378;0.094;2022-08-19T09:18:48;22.00;68.70
26254;DHT22;53339;51.378;0.094;2022-08-19T09:21:21;21.90;68.40
26254;DHT22;53339;51.378;0.094;2022-08-19T09:23:52;21.70;68.70
26254;DHT22;53339;51.378;0.094;2022-08-19T09:26:22;21.70;69.20
26254;DHT22;53339;51.378;0.094;2022-08-19T09:28:51;21.90;69.10
26254;DHT22;53339;51.378;0.094;2022-08-19T09:31:22;22.10;68.10
26254;DHT22;53339;51.378;0.094;2022-08-19T09:33:51;22.20;67.30
26254;DHT22;53339;51.378;0.094;2022-08-19T09:36:21;22.20;66.60
26254;DHT22;53339;51.378;0.094;2022-08-19T09:38:57;22.30;66.80
26254;DHT22;53339;51.378;0.094;2022-08-19T09:41:25;22.30;66.60
26254;DHT22;53339;51.378;0.094;2022-08-19T09:43:55;22.30;66.80
26254;DHT22;53339;51.378;0.094;2022-08-19T09:46:25;22.20;67.20
26254;DHT22;53339;51.378;0.094;2022-08-19T09:48:54;22.20;66.40
26254;DHT22;53339;51.378;0.094;2022-08-19T09:51:24;22.20;66.10
26254;DHT22;53339;51.378;0.094;2022-08-19T09:53:54;22.20;65.70
26254;DHT22;53339;51.378;0.094;2022-08-19T09:56:22;22.40;66.00
26254;DHT22;53339;51.378;0.094;2022-08-19T09:58:50;22.50;65.40
26254;DHT22;53339;51.378;0.094;2022-08-19T10:01:21;22.60;65.20
26254;DHT22;53339;51.378;0.094;2022-08-19T10:03:53;22.60;64.70
26254;DHT22;53339;51.378;0.094;2022-08-19T10:06:24;22.60;64.30
26254;DHT22;53339;51.378;0.094;2022-08-19T10:09:07;22.60;64.20
26254;DHT22;53339;51.378;0.094;2022-08-19T10:11:35;22.80;64.10
26254;DHT22;53339;51.378;0.094;2022-08-19T10:14:07;23.00;62.70
26254;DHT22;53339;51.378;0.094;2022-08-19T10:16:36;23.10;61.90
26254;DHT22;53339;51.378;0.094;2022-08-19T10:19:06;23.00;62.10
26254;DHT22;53339;51.378;0.094;2022-08-19T10:21:33;22.90;62.70
26254;DHT22;53339;51.378;0.094;2022-08-19T10:24:04;22.80;62.70
26254;DHT22;53339;51.378;0.094;2022-08-19T10:26:35;22.80;63.30
26254;DHT22;53339;51.378;0.094;2022-08-19T10:29:04;22.90;62.70
26254;DHT22;53339;51.378;0.094;2022-08-19T10:31:35;23.00;63.10
26254;DHT22;53339;51.378;0.094;2022-08-19T10:34:24;23.10;63.00
26254;DHT22;53339;51.378;0.094;2022-08-19T10:36:55;23.30;62.20
26254;DHT22;53339;51.378;0.094;2022-08-19T10:39:29;23.50;62.60
26254;DHT22;53339;51.378;0.094;2022-08-19T10:41:57;23.70;61.30
26254;DHT22;53339;51.378;0.094;2022-08-19T10:44:25;23.80;60.70
26254;DHT22;53339;51.378;0.094;2022-08-19T10:46:59;23.80;61.10
26254;DHT22;53339;51.378;0.094;2022-08-19T10:49:27;23.90;60.40
26254;DHT22;53339;51.378;0.094;2022-08-19T10:51:56;23.80;60.90
26254;DHT22;53339;51.378;0.094;2022-08-19T10:54:45;23.70;61.00
26254;DHT22;53339;51.378;0.094;2022-08-19T10:57:35;23.50;61.00
26254;DHT22;53339;51.378;0.094;2022-08-19T11:00:24;23.20;61.80
26254;DHT22;53339;51.378;0.094;2022-08-19T11:02:52;22.90;62.60
26254;DHT22;53339;51.378;0.094;2022-08-19T11:05:19;22.60;63.30
26254;DHT22;53339;51.378;0.094;2022-08-19T11:07:48;22.40;64.20
26254;DHT22;53339;51.378;0.094;2022-08-19T11:10:17;22.30;64.80
26254;DHT22;53339;51.378;0.094;2022-08-19T11:12:48;22.20;65.20
26254;DHT22;53339;51.378;0.094;2022-08-19T11:15:16;22.10;66.10
26254;DHT22;53339;51.378;0.094;2022-08-19T11:17:44;21.90;67.10
26254;DHT22;53339;51.378;0.094;2022-08-19T11:20:13;21.90;67.70
26254;DHT22;53339;51.378;0.094;2022-08-19T11:22:42;22.00;67.70
26254;DHT22;53339;51.378;0.094;2022-08-19T11:25:10;22.20;67.40
26254;DHT22;53339;51.378;0.094;2022-08-19T11:27:40;22.30;66.20
26254;DHT22;53339;51.378;0.094;2022-08-19T11:30:10;22.40;65.20
26254;DHT22;53339;51.378;0.094;2022-08-19T11:32:41;22.30;65.70
26254;DHT22;53339;51.378;0.094;2022-08-19T11:35:13;22.40;65.50
26254;DHT22;53339;51.378;0.094;2022-08-19T11:37:41;22.30;64.80
26254;DHT22;53339;51.378;0.094;2022-08-19T11:40:09;22.30;65.30
26254;DHT22;53339;51.378;0.094;2022-08-19T11:42:37;22.30;65.50
26254;DHT22;53339;51.378;0.094;2022-08-19T11:45:26;22.20;65.50
26254;DHT22;53339;51.378;0.094;2022-08-19T11:47:54;22.40;65.60
26254;DHT22;53339;51.378;0.094;2022-08-19T11:50:23;22.70;64.50
26254;DHT22;53339;51.378;0.094;2022-08-19T11:52:55;22.90;63.10
26254;DHT22;53339;51.378;0.094;2022-08-19T11:55:23;23.00;62.60
26254;DHT22;53339;51.378;0.094;2022-08-19T11:57:51;23.00;62.40
26254;DHT22;53339;51.378;0.094;2022-08-19T12:00:19;22.90;62.20
26254;DHT22;53339;51.378;0.094;2022-08-19T12:02:46;22.90;62.80
26254;DHT22;53339;51.378;0.094;2022-08-19T12:05:14;22.90;63.30
26254;DHT22;53339;51.378;0.094;2022-08-19T12:07:42;22.80;62.00
26254;DHT22;53339;51.378;0.094;2022-08-19T12:10:10;22.70;61.60
26254;DHT22;53339;51.378;0.094;2022-08-19T12:12:38;22.70;61.90
26254;DHT22;53339;51.378;0.094;2022-08-19T12:15:10;22.80;60.80
26254;DHT22;53339;51.378;0.094;2022-08-19T12:17:38;22.80;59.70
26254;DHT22;53339;51.378;0.094;2022-08-19T12:20:06;23.00;58.50
26254;DHT22;53339;51.378;0.094;2022-08-19T12:22:39;23.20;57.40
26254;DHT22;53339;51.378;0.094;2022-08-19T12:25:11;23.40;57.20
26254;DHT22;53339;51.378;0.094;2022-08-19T12:27:41;23.40;56.60
26254;DHT22;53339;51.378;0.094;2022-08-19T12:30:14;23.50;55.60
26254;DHT22;53339;51.378;0.094;2022-08-19T12:32:44;23.50;55.00
26254;DHT22;53339;51.378;0.094;2022-08-19T12:35:11;23.70;54.60
26254;DHT22;53339;51.378;0.094;2022-08-19T12:37:40;23.90;53.90
26254;DHT22;53339;51.378;0.094;2022-08-19T12:40:10;24.00;53.30
26254;DHT22;53339;51.378;0.094;2022-08-19T12:42:39;23.90;53.80
26254;DHT22;53339;51.378;0.094;2022-08-19T12:45:11;23.70;53.20
26254;DHT22;53339;51.378;0.094;2022-08-19T12:47:39;23.60;54.00
26254;DHT22;53339;51.378;0.094;2022-08-19T12:50:07;23.50;54.30
26254;DHT22;53339;51.378;0.094;2022-08-19T12:52:38;23.30;54.40
26254;DHT22;53339;51.378;0.094;2022-08-19T12:55:06;23.30;54.70
26254;DHT22;53339;51.378;0.094;2022-08-19T12:57:34;23.30;53.90
26254;DHT22;53339;51.378;0.094;2022-08-19T13:00:15;23.30;53.10
26254;DHT22;53339;51.378;0.094;2022-08-19T13:02:46;23.40;52.80
26254;DHT22;53339;51.378;0.094;2022-08-19T13:05:16;23.60;51.50
26254;DHT22;53339;51.378;0.094;2022-08-19T13:07:47;23.70;51.70
26254;DHT22;53339;51.378;0.094;2022-08-19T13:10:19;24.00;50.10
26254;DHT22;53339;51.378;0.094;2022-08-19T13:12:49;24.30;48.70
26254;DHT22;53339;51.378;0.094;2022-08-19T13:15:18;25.00;47.40
26254;DHT22;53339;51.378;0.094;2022-08-19T13:17:51;25.90;45.10
26254;DHT22;53339;51.378;0.094;2022-08-19T13:20:20;27.10;42.80
26254;DHT22;53339;51.378;0.094;2022-08-19T13:22:49;28.10;40.00
26254;DHT22;53339;51.378;0.094;2022-08-19T13:25:17;28.60;37.70
26254;DHT22;53339;51.378;0.094;2022-08-19T13:27:47;28.90;37.70
26254;DHT22;53339;51.378;0.094;2022-08-19T13:30:17;29.20;36.20
26254;DHT22;53339;51.378;0.094;2022-08-19T13:33:04;29.60;36.70
26254;DHT22;53339;51.378;0.094;2022-08-19T13:35:40;30.00;35.20
26254;DHT22;53339;51.378;0.094;2022-08-19T13:38:08;30.30;35.20
26254;DHT22;53339;51.378;0.094;2022-08-19T13:40:39;30.70;32.30
26254;DHT22;53339;51.378;0.094;2022-08-19T13:43:08;30.70;32.60
26254;DHT22;53339;51.378;0.094;2022-08-19T13:45:40;30.50;33.30
26254;DHT22;53339;51.378;0.094;2022-08-19T13:48:08;30.50;33.60
26254;DHT22;53339;51.378;0.094;2022-08-19T13:50:41;30.10;32.70
26254;DHT22;53339;51.378;0.094;2022-08-19T13:53:11;29.20;34.30
26254;DHT22;53339;51.378;0.094;2022-08-19T13:55:39;28.30;35.70
26254;DHT22;53339;51.378;0.094;2022-08-19T13:58:06;28.00;36.20
26254;DHT22;53339;51.378;0.094;2022-08-19T14:00:39;27.90;35.60
26254;DHT22;53339;51.378;0.094;2022-08-19T14:03:07;27.90;36.80
26254;DHT22;53339;51.378;0.094;2022-08-19T14:05:36;28.60;37.30
26254;DHT22;53339;51.378;0.094;2022-08-19T14:08:04;29.70;36.40
26254;DHT22;53339;51.378;0.094;2022-08-19T14:10:31;30.80;33.50
26254;DHT22;53339;51.378;0.094;2022-08-19T14:13:02;31.40;31.40
26254;DHT22;53339;51.378;0.094;2022-08-19T14:15:31;31.70;30.50
26254;DHT22;53339;51.378;0.094;2022-08-19T14:17:59;31.90;30.40
26254;DHT22;53339;51.378;0.094;2022-08-19T14:20:26;32.20;29.50
26254;DHT22;53339;51.378;0.094;2022-08-19T14:22:54;31.90;28.80
26254;DHT22;53339;51.378;0.094;2022-08-19T14:25:25;31.50;30.40
26254;DHT22;53339;51.378;0.094;2022-08-19T14:27:53;31.70;29.40
26254;DHT22;53339;51.378;0.094;2022-08-19T14:30:27;32.00;29.10
26254;DHT22;53339;51.378;0.094;2022-08-19T14:32:56;32.10;27.90
26254;DHT22;53339;51.378;0.094;2022-08-19T14:35:26;31.50;28.90
26254;DHT22;53339;51.378;0.094;2022-08-19T14:37:55;31.30;29.00
26254;DHT22;53339;51.378;0.094;2022-08-19T14:40:26;31.60;28.40
26254;DHT22;53339;51.378;0.094;2022-08-19T14:42:56;31.20;27.70
26254;DHT22;53339;51.378;0.094;2022-08-19T14:45:27;30.60;28.70
26254;DHT22;53339;51.378;0.094;2022-08-19T14:47:55;30.60;29.30
26254;DHT22;53339;51.378;0.094;2022-08-19T14:50:23;31.10;27.90
26254;DHT22;53339;51.378;0.094;2022-08-19T14:52:58;31.30;26.90
26254;DHT22;53339;51.378;0.094;2022-08-19T14:55:27;31.30;26.90
26254;DHT22;53339;51.378;0.094;2022-08-19T14:57:55;31.40;28.50
26254;DHT22;53339;51.378;0.094;2022-08-19T15:00:23;31.50;27.30
26254;DHT22;53339;51.378;0.094;2022-08-19T15:02:51;31.70;26.50
26254;DHT22;53339;51.378;0.094;2022-08-19T15:05:21;31.90;26.20
26254;DHT22;53339;51.378;0.094;2022-08-19T15:07:48;32.10;25.60
26254;DHT22;53339;51.378;0.094;2022-08-19T15:10:16;32.10;25.30
26254;DHT22;53339;51.378;0.094;2022-08-19T15:12:44;32.20;25.90
26254;DHT22;53339;51.378;0.094;2022-08-19T15:15:16;32.60;26.20
26254;DHT22;53339;51.378;0.094;2022-08-19T15:17:47;32.90;23.90
26254;DHT22;53339;51.378;0.094;2022-08-19T15:20:19;33.10;24.20
26254;DHT22;53339;51.378;0.094;2022-08-19T15:22:48;33.20;23.70
26254;DHT22;53339;51.378;0.094;2022-08-19T15:25:17;33.10;23.20
26254;DHT22;53339;51.378;0.094;2022-08-19T15:27:46;32.90;22.60
26254;DHT22;53339;51.378;0.094;2022-08-19T15:30:26;32.60;22.60
26254;DHT22;53339;51.378;0.094;2022-08-19T15:32:57;32.50;22.00
26254;DHT22;53339;51.378;0.094;2022-08-19T15:35:25;32.20;22.50
26254;DHT22;53339;51.378;0.094;2022-08-19T15:37:53;32.00;23.60
26254;DHT22;53339;51.378;0.094;2022-08-19T15:40:23;32.10;23.60
26254;DHT22;53339;51.378;0.094;2022-08-19T15:42:51;32.10;23.30
26254;DHT22;53339;51.378;0.094;2022-08-19T15:45:21;31.90;23.50
26254;DHT22;53339;51.378;0.094;2022-08-19T15:47:48;31.90;24.10
26254;DHT22;53339;51.378;0.094;2022-08-19T15:50:18;32.10;24.50
26254;DHT22;53339;51.378;0.094;2022-08-19T15:52:56;32.30;23.90
26254;DHT22;53339;51.378;0.094;2022-08-19T15:55:30;32.30;23.60
26254;DHT22;53339;51.378;0.094;2022-08-19T15:58:09;31.70;24.40
26254;DHT22;53339;51.378;0.094;2022-08-19T16:00:57;31.20;25.20
26254;DHT22;53339;51.378;0.094;2022-08-19T16:03:48;31.00;26.10
26254;DHT22;53339;51.378;0.094;2022-08-19T16:06:39;31.00;26.10